Time;durP1;ratioP1;P1;durP2;ratioP2;P2;SDS_P1;SDS_P2;PMS_P1;PMS_P2;Temp;Humidity;BMP_temperature;BMP_pressure;BME280_temperature;BME280_humidity;BME280_pressure;Samples;Min_cycle;Max_cycle;Signal;HPM_P1;HPM_P2
2022/04/15 00:01:22;;;;;;;;;9.00;9.00;;;;;17.37;50.38;102092.00;6183688;23;45364;-82
2022/04/15 00:03:51;;;;;;;;;9.00;8.00;;;;;17.39;50.46;102098.22;6157820;23;46777;-82
2022/04/15 00:06:18;;;;;;;;;9.25;8.75;;;;;17.32;50.62;102084.09;6157564;23;45373;-84
2022/04/15 00:08:44;;;;;;;;;8.75;8.75;;;;;17.31;50.92;102089.44;6159337;23;45412;-83
2022/04/15 00:11:10;;;;;;;;;6.00;6.00;;;;;17.32;50.89;102097.41;6186396;23;45318;-83
2022/04/15 00:13:36;;;;;;;;;11.00;9.75;;;;;17.23;51.16;102086.84;6184910;23;46837;-83
2022/04/15 00:16:06;;;;;;;;;11.00;9.00;;;;;17.28;51.42;102094.78;6184643;23;45932;-83
2022/04/15 00:18:34;;;;;;;;;9.00;9.00;;;;;17.20;51.69;102084.22;6184337;23;45186;-83
2022/04/15 00:21:00;;;;;;;;;9.50;8.00;;;;;17.19;51.74;102098.44;6186178;23;45400;-83
2022/04/15 00:23:25;;;;;;;;;9.00;7.00;;;;;17.12;51.74;102102.03;6186079;23;45385;-83
2022/04/15 00:25:52;;;;;;;;;8.00;7.75;;;;;17.08;52.26;102093.19;6159565;23;45345;-83
2022/04/15 00:28:18;;;;;;;;;11.00;9.00;;;;;17.04;52.55;102096.78;6186442;23;45309;-83
2022/04/15 00:30:44;;;;;;;;;9.50;8.50;;;;;17.00;52.83;102100.38;6158783;23;45310;-83
2022/04/15 00:33:09;;;;;;;;;11.00;8.00;;;;;16.95;53.00;102100.41;6184041;23;46914;-83
2022/04/15 00:35:35;;;;;;;;;9.25;9.25;;;;;16.92;52.92;102088.88;6159295;23;45189;-83
2022/04/15 00:38:01;;;;;;;;;8.50;8.50;;;;;16.86;52.93;102084.50;6159638;23;45179;-83
2022/04/15 00:40:26;;;;;;;;;9.50;9.00;;;;;16.89;53.18;102096.91;6186433;23;45104;-83
2022/04/15 00:42:52;;;;;;;;;13.25;12.25;;;;;16.91;52.86;102095.13;6186057;23;45550;-83
2022/04/15 00:45:18;;;;;;;;;11.00;8.25;;;;;16.85;53.21;102095.16;6184432;23;45230;-83
2022/04/15 00:47:53;;;;;;;;;10.50;10.50;;;;;16.86;53.35;102100.47;6159391;23;45431;-82
2022/04/15 00:50:31;;;;;;;;;10.25;9.25;;;;;16.82;53.54;102092.53;6186405;23;45263;-82
2022/04/15 00:52:58;;;;;;;;;15.25;14.75;;;;;16.73;53.49;102088.13;6183857;23;47284;-82
2022/04/15 00:55:25;;;;;;;;;10.75;10.25;;;;;16.68;53.71;102088.19;6184468;23;45207;-82
2022/04/15 00:57:57;;;;;;;;;13.25;11.00;;;;;16.68;53.58;102096.16;6159491;23;45192;-82
2022/04/15 01:00:23;;;;;;;;;10.50;9.25;;;;;16.67;53.90;102098.81;6184191;23;45365;-82
2022/04/15 01:02:49;;;;;;;;;9.75;9.75;;;;;16.66;54.05;102099.72;6186050;23;46050;-82
2022/04/15 01:05:16;;;;;;;;;11.75;11.00;;;;;16.62;54.13;102097.97;6187442;23;45148;-82
2022/04/15 01:07:46;;;;;;;;;14.25;12.75;;;;;16.62;54.19;102101.50;6188031;23;45235;-82
2022/04/15 01:10:13;;;;;;;;;11.00;10.25;;;;;16.59;54.09;102097.97;6160247;23;45482;-82
2022/04/15 01:12:40;;;;;;;;;11.50;11.25;;;;;16.52;54.54;102084.75;6186817;23;45262;-82
2022/04/15 01:15:09;;;;;;;;;10.75;9.75;;;;;16.51;54.63;102096.25;6185178;23;45290;-82
2022/04/15 01:17:35;;;;;;;;;10.75;9.75;;;;;16.49;54.41;102092.75;6185669;23;45272;-82
2022/04/15 01:20:09;;;;;;;;;11.25;10.50;;;;;16.48;54.66;102098.06;6186825;23;45281;-82
2022/04/15 01:22:43;;;;;;;;;13.25;10.75;;;;;16.41;55.04;102097.22;6160530;23;47372;-81
2022/04/15 01:25:16;;;;;;;;;14.75;12.25;;;;;16.38;55.06;102097.22;6160159;23;45413;-82
2022/04/15 01:27:44;;;;;;;;;11.00;10.75;;;;;16.25;55.01;102085.81;6187088;23;45171;-81
2022/04/15 01:30:17;;;;;;;;;10.25;10.25;;;;;16.27;55.31;102086.66;6187173;23;45332;-83
2022/04/15 01:32:43;;;;;;;;;10.25;9.25;;;;;16.31;55.32;102098.16;6160162;23;46252;-81
2022/04/15 01:35:10;;;;;;;;;17.00;14.25;;;;;16.24;55.09;102092.00;6185079;23;45405;-82
2022/04/15 01:37:37;;;;;;;;;16.00;14.50;;;;;16.21;55.69;102097.31;6160143;23;45293;-81
2022/04/15 01:40:04;;;;;;;;;11.50;11.50;;;;;16.23;55.67;102103.53;6160308;23;45840;-81
2022/04/15 01:42:30;;;;;;;;;13.50;13.50;;;;;16.14;55.71;102094.69;6159571;23;48404;-81
2022/04/15 01:44:56;;;;;;;;;12.00;12.00;;;;;16.16;55.61;102101.78;6187264;23;45114;-81
2022/04/15 01:47:21;;;;;;;;;15.75;14.50;;;;;16.14;56.07;102106.22;6187603;23;45095;-82
2022/04/15 01:49:47;;;;;;;;;16.75;13.25;;;;;16.05;56.04;102101.81;6186871;23;45329;-82
2022/04/15 01:52:12;;;;;;;;;13.00;13.00;;;;;16.00;55.97;102095.66;6159863;23;47281;-81
2022/04/15 01:54:38;;;;;;;;;14.25;13.50;;;;;15.98;55.78;102094.75;6159949;23;45221;-81
2022/04/15 01:57:03;;;;;;;;;14.75;13.75;;;;;16.01;56.16;102097.44;6186848;23;45364;-82
2022/04/15 01:59:29;;;;;;;;;10.00;10.00;;;;;15.99;56.10;102095.69;6187519;23;45495;-81
2022/04/15 02:01:54;;;;;;;;;14.25;14.25;;;;;15.96;56.45;102093.91;6187566;23;46186;-82
2022/04/15 02:04:25;;;;;;;;;13.75;13.75;;;;;15.97;56.36;102100.97;6160623;23;45763;-81
2022/04/15 02:06:50;;;;;;;;;10.25;9.75;;;;;15.88;56.20;102085.09;6160705;23;45123;-81
2022/04/15 02:09:16;;;;;;;;;12.50;11.75;;;;;15.94;56.43;102102.78;6160411;23;45512;-83
2022/04/15 02:11:42;;;;;;;;;12.00;11.75;;;;;15.88;56.78;102098.38;6186586;23;46338;-83
2022/04/15 02:14:08;;;;;;;;;9.50;9.50;;;;;15.84;56.46;102091.28;6185646;23;45132;-83
2022/04/15 02:16:34;;;;;;;;;10.50;10.00;;;;;15.78;56.55;102093.97;6159696;23;45460;-83
2022/04/15 02:19:00;;;;;;;;;13.25;13.25;;;;;15.80;56.89;102106.38;6186581;23;45349;-83
2022/04/15 02:21:25;;;;;;;;;14.50;14.25;;;;;15.72;56.89;102099.31;6160286;23;46928;-84
2022/04/15 02:23:51;;;;;;;;;14.75;13.00;;;;;15.70;56.95;102104.63;6160291;23;45393;-82
2022/04/15 02:26:17;;;;;;;;;13.00;13.00;;;;;15.66;56.91;102098.41;6185137;23;45353;-81
2022/04/15 02:28:42;;;;;;;;;13.50;13.50;;;;;15.69;57.06;102107.28;6187105;23;45341;-82
2022/04/15 02:31:08;;;;;;;;;12.75;12.75;;;;;15.61;57.16;102104.59;6187180;23;45927;-82
2022/04/15 02:33:33;;;;;;;;;13.00;11.75;;;;;15.57;57.09;102101.09;6187552;23;45171;-82
2022/04/15 02:35:59;;;;;;;;;13.75;13.25;;;;;15.56;57.29;102103.75;6187793;23;45148;-82
2022/04/15 02:38:24;;;;;;;;;14.50;13.25;;;;;15.48;57.55;102095.81;6160969;23;45222;-82
2022/04/15 02:40:50;;;;;;;;;12.25;12.25;;;;;15.49;57.54;102099.34;6187548;23;45312;-82
2022/04/15 02:43:16;;;;;;;;;12.50;12.50;;;;;15.47;57.65;102107.28;6185464;23;45201;-82
2022/04/15 02:45:42;;;;;;;;;15.25;15.25;;;;;15.48;57.70;102105.56;6160086;23;45218;-81
2022/04/15 02:48:08;;;;;;;;;12.50;12.50;;;;;15.40;57.37;102097.59;6185867;23;45608;-82
2022/04/15 02:50:34;;;;;;;;;14.00;14.00;;;;;15.35;57.58;102100.25;6187199;23;45393;-82
2022/04/15 02:53:01;;;;;;;;;13.50;13.50;;;;;15.38;57.91;102115.28;6160664;23;45535;-82
2022/04/15 02:55:26;;;;;;;;;17.25;15.50;;;;;15.36;57.92;102109.09;6187826;23;45658;-82
2022/04/15 02:57:52;;;;;;;;;14.75;12.25;;;;;15.25;58.14;102102.91;6159894;23;45328;-82
2022/04/15 03:00:18;;;;;;;;;20.25;15.75;;;;;15.24;58.04;102104.69;6186904;23;45837;-81
2022/04/15 03:02:44;;;;;;;;;15.50;14.75;;;;;15.25;57.93;102114.41;6187389;23;45178;-81
2022/04/15 03:05:10;;;;;;;;;15.25;15.25;;;;;15.17;57.95;102108.22;6187112;23;45167;-82
2022/04/15 03:07:36;;;;;;;;;14.50;13.00;;;;;15.10;57.91;102091.44;6159757;23;45393;-82
2022/04/15 03:10:04;;;;;;;;;12.50;12.00;;;;;15.12;58.20;102102.03;6186871;23;45970;-82
2022/04/15 03:12:36;;;;;;;;;14.50;13.50;;;;;15.14;58.06;102114.41;6184564;23;46526;-82
2022/04/15 03:15:04;;;;;;;;;14.75;14.75;;;;;15.08;58.61;102114.44;6159728;23;45196;-81
2022/04/15 03:17:30;;;;;;;;;12.75;11.00;;;;;15.02;58.55;102108.22;6184717;23;45412;-82
2022/04/15 03:19:55;;;;;;;;;16.25;14.50;;;;;14.99;58.77;102107.38;6184543;23;45387;-81
2022/04/15 03:22:20;;;;;;;;;11.50;11.00;;;;;14.98;58.51;102104.69;6186869;23;45324;-82
2022/04/15 03:24:48;;;;;;;;;18.00;15.50;;;;;14.98;58.66;102110.88;6185379;23;45417;-82
2022/04/15 03:27:14;;;;;;;;;13.75;11.75;;;;;14.94;58.27;102111.78;6158734;23;45209;-81
2022/04/15 03:29:40;;;;;;;;;13.00;13.00;;;;;14.96;58.27;102125.91;6186522;23;45803;-82
2022/04/15 03:32:05;;;;;;;;;14.00;14.00;;;;;14.87;58.86;102110.00;6186949;23;45168;-82
2022/04/15 03:34:32;;;;;;;;;15.75;15.00;;;;;14.89;58.50;102126.81;6186509;23;45261;-81
2022/04/15 03:36:58;;;;;;;;;12.50;12.50;;;;;14.88;59.03;102125.03;6187025;23;45151;-83
2022/04/15 03:39:23;;;;;;;;;15.00;15.00;;;;;14.83;58.75;102117.94;6159628;23;47457;-81
2022/04/15 03:41:48;;;;;;;;;15.00;12.75;;;;;14.74;59.03;102111.75;6186289;23;45285;-81
2022/04/15 03:44:14;;;;;;;;;12.25;11.75;;;;;14.77;59.19;102118.84;6187133;23;45333;-83
2022/04/15 03:46:40;;;;;;;;;13.50;13.50;;;;;14.73;59.09;102115.31;6184910;23;45444;-82
2022/04/15 03:49:06;;;;;;;;;14.75;14.75;;;;;14.74;59.16;102113.53;6186777;23;45352;-81
2022/04/15 03:51:31;;;;;;;;;14.75;13.00;;;;;14.74;59.25;102118.84;6184574;23;45369;-81
2022/04/15 03:53:57;;;;;;;;;15.75;13.50;;;;;14.71;59.27;102118.84;6159978;23;45364;-81
2022/04/15 03:56:22;;;;;;;;;17.00;14.75;;;;;14.65;59.43;102122.38;6186622;23;45379;-81
2022/04/15 03:58:48;;;;;;;;;16.00;13.00;;;;;14.63;59.35;102133.84;6186769;23;45328;-81
2022/04/15 04:01:13;;;;;;;;;15.25;14.50;;;;;14.53;59.47;102125.84;6186989;23;45170;-81
2022/04/15 04:03:39;;;;;;;;;15.25;13.00;;;;;14.50;59.61;102122.28;6186637;23;45226;-82
2022/04/15 04:06:04;;;;;;;;;14.25;14.25;;;;;14.54;59.61;102132.03;6186886;23;45116;-81
2022/04/15 04:08:29;;;;;;;;;14.75;13.75;;;;;14.53;59.83;102127.63;6160072;23;46681;-80
2022/04/15 04:10:55;;;;;;;;;13.75;13.75;;;;;14.48;60.04;102130.22;6188278;23;45186;-82
2022/04/15 04:13:21;;;;;;;;;14.50;14.25;;;;;14.53;60.12;102130.28;6161486;23;45179;-82
2022/04/15 04:15:46;;;;;;;;;14.00;14.00;;;;;14.53;60.18;102135.56;6187057;23;45167;-82
2022/04/15 04:18:14;;;;;;;;;13.00;13.00;;;;;14.45;60.23;102121.41;6185983;23;46375;-81
2022/04/15 04:20:40;;;;;;;;;16.75;15.75;;;;;14.51;60.19;102126.69;6186408;23;45403;-82
2022/04/15 04:23:06;;;;;;;;;13.75;12.50;;;;;14.50;59.98;102131.13;6184818;23;45292;-82
2022/04/15 04:25:31;;;;;;;;;14.00;13.25;;;;;14.49;60.16;102142.63;6159385;23;45664;-82
2022/04/15 04:27:57;;;;;;;;;13.50;12.00;;;;;14.40;59.92;102139.03;6183933;23;47136;-82
2022/04/15 04:30:22;;;;;;;;;12.00;12.00;;;;;14.40;59.93;102134.63;6159250;23;45571;-82
2022/04/15 04:32:51;;;;;;;;;14.75;13.75;;;;;14.44;60.25;102147.00;6159719;23;45466;-81
2022/04/15 04:35:19;;;;;;;;;14.50;13.50;;;;;14.41;60.25;102154.09;6186409;23;45219;-82
2022/04/15 04:37:45;;;;;;;;;15.25;14.75;;;;;14.38;60.61;102147.00;6158971;23;47208;-81
2022/04/15 04:40:11;;;;;;;;;15.50;13.75;;;;;14.38;60.56;102154.94;6187552;23;45230;-82
2022/04/15 04:42:37;;;;;;;;;15.25;13.00;;;;;14.29;60.40;102134.59;6160240;23;45311;-83
2022/04/15 04:45:03;;;;;;;;;15.75;14.00;;;;;14.35;60.50;102149.63;6160664;23;45354;-82
2022/04/15 04:47:29;;;;;;;;;16.25;15.25;;;;;14.36;60.49;102155.81;6160466;23;46358;-83
2022/04/15 04:49:55;;;;;;;;;19.00;17.50;;;;;14.34;60.65;102146.09;6187428;23;45180;-82
2022/04/15 04:52:23;;;;;;;;;20.00;19.25;;;;;14.30;60.40;102146.97;6185452;23;45189;-82
2022/04/15 04:54:49;;;;;;;;;17.25;16.00;;;;;14.34;60.40;102151.38;6185313;23;45642;-81
2022/04/15 04:57:15;;;;;;;;;18.75;17.75;;;;;14.33;60.28;102159.34;6184704;23;46487;-82
2022/04/15 04:59:41;;;;;;;;;21.75;20.75;;;;;14.33;60.47;102160.22;6187702;23;45296;-81
2022/04/15 05:02:08;;;;;;;;;16.00;15.25;;;;;14.28;60.49;102163.75;6185675;23;45336;-82
2022/04/15 05:04:33;;;;;;;;;16.00;14.00;;;;;14.30;60.62;102175.22;6160645;23;46064;-82
2022/04/15 05:06:59;;;;;;;;;15.75;14.50;;;;;14.24;60.67;102170.78;6160068;23;48012;-82
2022/04/15 05:09:24;;;;;;;;;16.00;14.50;;;;;14.23;60.64;102171.66;6185586;23;45151;-82
2022/04/15 05:11:51;;;;;;;;;15.50;14.75;;;;;14.20;60.96;102179.59;6160054;23;45324;-83
2022/04/15 05:14:17;;;;;;;;;19.50;17.50;;;;;14.19;60.98;102177.81;6160866;23;45698;-82
2022/04/15 05:16:43;;;;;;;;;11.75;11.75;;;;;14.23;61.15;102191.97;6185236;23;46668;-83
2022/04/15 05:19:09;;;;;;;;;12.50;11.75;;;;;14.22;60.60;102191.09;6159239;23;45462;-82
2022/04/15 05:21:35;;;;;;;;;16.50;12.75;;;;;14.18;60.80;102183.13;6160577;23;45810;-82
2022/04/15 05:24:01;;;;;;;;;13.75;13.00;;;;;14.15;60.86;102191.94;6160364;23;45396;-82
2022/04/15 05:26:29;;;;;;;;;15.75;14.25;;;;;14.18;60.86;102197.25;6159719;23;47168;-82
2022/04/15 05:28:55;;;;;;;;;16.75;16.00;;;;;14.09;61.16;102181.31;6160027;23;45338;-82
2022/04/15 05:31:20;;;;;;;;;14.50;13.50;;;;;14.16;60.94;102191.03;6187428;23;45180;-82
2022/04/15 05:33:45;;;;;;;;;15.00;14.75;;;;;14.10;61.01;102183.97;6160509;23;45442;-82
2022/04/15 05:36:11;;;;;;;;;14.25;12.25;;;;;14.15;60.94;102201.66;6187259;23;45532;-81
2022/04/15 05:38:36;;;;;;;;;16.25;13.75;;;;;14.07;61.32;102191.00;6159909;23;45187;-82
2022/04/15 05:41:02;;;;;;;;;17.75;15.00;;;;;14.06;61.11;102191.88;6160088;23;45181;-82
2022/04/15 05:43:28;;;;;;;;;12.50;11.25;;;;;14.09;60.93;102210.44;6187320;23;45166;-82
2022/04/15 05:45:53;;;;;;;;;16.25;13.50;;;;;14.07;61.13;102204.25;6160051;23;48236;-82
2022/04/15 05:48:19;;;;;;;;;12.00;12.00;;;;;14.02;61.15;102196.28;6187253;23;45382;-82
2022/04/15 05:50:44;;;;;;;;;15.00;15.00;;;;;14.10;61.04;102218.38;6186880;22;45364;-82
2022/04/15 05:53:13;;;;;;;;;14.00;13.00;;;;;14.10;60.79;102221.03;6187683;23;45236;-83
2022/04/15 05:55:39;;;;;;;;;15.50;15.00;;;;;14.00;60.80;102202.44;6160380;23;46985;-81
2022/04/15 05:58:04;;;;;;;;;13.50;12.75;;;;;14.05;61.09;102216.59;6187358;23;45112;-82
2022/04/15 06:00:29;;;;;;;;;13.25;12.00;;;;;14.04;61.00;102217.47;6160572;23;45163;-82
2022/04/15 06:02:55;;;;;;;;;15.00;13.00;;;;;14.04;61.33;102221.00;6187364;23;45159;-78
2022/04/15 06:05:23;;;;;;;;;6.50;5.25;;;;;14.03;60.94;102213.03;6186830;23;45824;-81
2022/04/15 06:07:48;;;;;;;;;13.75;13.25;;;;;14.03;61.14;102221.00;6187344;23;45442;-79
2022/04/15 06:10:13;;;;;;;;;16.50;13.25;;;;;13.94;60.83;102208.59;6160048;23;45581;-80
2022/04/15 06:12:57;;;;;;;;;16.00;15.25;;;;;14.00;61.17;102218.31;6184910;23;45905;-78
2022/04/15 06:15:33;;;;;;;;;16.25;13.75;;;;;14.00;61.22;102228.91;6159173;23;47688;-78
2022/04/15 06:18:02;;;;;;;;;18.25;13.25;;;;;13.92;60.86;102222.69;6160022;23;45183;-78
2022/04/15 06:21:00;;;;;;;;;14.50;12.50;;;;;13.93;61.15;102229.78;6154490;23;45434;-80
2022/04/15 06:23:37;;;;;;;;;18.00;17.75;;;;;13.97;60.98;102237.72;6129820;23;45278;-80
2022/04/15 06:26:06;;;;;;;;;16.50;16.00;;;;;13.95;61.24;102250.06;6156410;23;46194;-79
2022/04/15 06:28:36;;;;;;;;;17.25;16.00;;;;;13.93;61.33;102243.91;6156740;23;45393;-80
2022/04/15 06:31:02;;;;;;;;;17.25;16.00;;;;;13.83;61.27;102235.00;6156917;23;45227;-81
2022/04/15 06:33:27;;;;;;;;;22.50;18.75;;;;;13.83;61.38;102235.00;6156805;23;45209;-81
2022/04/15 06:35:53;;;;;;;;;16.25;13.75;;;;;13.88;61.07;102248.28;6156794;23;45969;-81
2022/04/15 06:38:18;;;;;;;;;16.75;14.75;;;;;13.89;61.08;102255.31;6129947;23;45291;-81
2022/04/15 06:40:44;;;;;;;;;20.50;20.50;;;;;13.84;60.96;102242.03;6156529;23;45234;-80
2022/04/15 06:43:10;;;;;;;;;24.00;17.25;;;;;13.89;61.50;102256.22;6156533;23;45423;-80
2022/04/15 06:45:35;;;;;;;;;14.75;13.75;;;;;13.90;61.21;102250.06;6156328;23;45320;-80
2022/04/15 06:48:01;;;;;;;;;18.00;14.00;;;;;13.90;61.62;102252.69;6156761;23;45300;-80
2022/04/15 06:50:30;;;;;;;;;14.50;13.25;;;;;13.82;61.56;102240.25;6129424;23;45265;-80
2022/04/15 06:52:56;;;;;;;;;16.50;15.75;;;;;13.84;61.37;102246.47;6154518;23;45683;-80
2022/04/15 06:55:21;;;;;;;;;16.00;13.75;;;;;13.87;61.38;102251.78;6129301;23;47140;-80
2022/04/15 06:57:47;;;;;;;;;20.00;17.50;;;;;13.91;61.50;102261.53;6154431;23;45199;-84
2022/04/15 07:00:13;;;;;;;;;17.50;13.50;;;;;13.86;61.61;102247.38;6129613;23;45250;-81
2022/04/15 07:02:41;;;;;;;;;17.25;15.00;;;;;13.90;61.63;102255.34;6129582;23;45461;-80
2022/04/15 07:05:09;;;;;;;;;18.25;17.50;;;;;13.94;61.58;102261.53;6129222;23;46079;-79
2022/04/15 07:07:35;;;;;;;;;17.25;16.50;;;;;13.95;61.49;102257.13;6156032;23;45191;-80
2022/04/15 07:10:01;;;;;;;;;16.50;14.75;;;;;13.97;61.48;102258.03;6129606;23;45255;-80
2022/04/15 07:12:27;;;;;;;;;18.00;15.50;;;;;13.99;61.55;102264.22;6128512;23;45403;-78
2022/04/15 07:14:52;;;;;;;;;19.75;19.75;;;;;14.01;61.65;102263.38;6128852;23;47852;-79
2022/04/15 07:17:18;;;;;;;;;16.00;13.50;;;;;14.06;61.78;102261.63;6155975;23;45236;-79
2022/04/15 07:19:43;;;;;;;;;18.00;15.50;;;;;14.15;61.60;102266.09;6149279;23;45449;-78
2022/04/15 07:22:09;;;;;;;;;19.00;19.00;;;;;14.17;61.52;102260.81;6158979;23;45418;-79
2022/04/15 07:24:34;;;;;;;;;26.25;20.50;;;;;14.25;61.26;102277.63;6158691;23;46101;-79
2022/04/15 07:27:00;;;;;;;;;15.75;15.75;;;;;14.25;61.24;102267.94;6158287;23;45362;-79
2022/04/15 07:29:26;;;;;;;;;19.00;16.00;;;;;14.28;61.75;102267.94;6185787;23;45378;-79
2022/04/15 07:31:54;;;;;;;;;17.50;14.50;;;;;14.34;61.50;102269.72;6158870;23;45445;-79
2022/04/15 07:34:19;;;;;;;;;15.50;14.75;;;;;14.39;61.62;102275.06;6185950;23;46450;-79
2022/04/15 07:36:53;;;;;;;;;18.00;16.50;;;;;14.47;61.46;102271.56;6158822;23;45737;-79
2022/04/15 07:39:19;;;;;;;;;18.75;16.00;;;;;14.54;61.33;102269.84;6183848;23;45221;-78
2022/04/15 07:41:45;;;;;;;;;18.00;18.00;;;;;14.59;61.14;102272.53;6157667;23;45376;-78
2022/04/15 07:44:12;;;;;;;;;14.75;14.75;;;;;14.68;61.24;102272.59;6158397;23;48087;-79
2022/04/15 07:46:39;;;;;;;;;17.50;16.75;;;;;14.74;61.19;102270.81;6183251;23;45226;-79
2022/04/15 07:49:05;;;;;;;;;16.25;14.75;;;;;14.81;61.06;102269.09;6183660;23;45434;-79
2022/04/15 07:51:32;;;;;;;;;18.00;18.00;;;;;14.88;61.07;102267.34;6183506;23;45439;-79
2022/04/15 07:53:57;;;;;;;;;21.00;20.00;;;;;14.96;60.92;102271.75;6185530;23;45339;-79
2022/04/15 07:56:23;;;;;;;;;18.00;17.75;;;;;15.01;60.34;102271.78;6184763;23;45303;-79
2022/04/15 07:58:51;;;;;;;;;20.00;17.00;;;;;15.12;60.81;102272.69;6185529;23;45174;-79
2022/04/15 08:01:17;;;;;;;;;17.00;17.00;;;;;15.26;60.25;102283.31;6157932;23;45475;-79
2022/04/15 08:03:43;;;;;;;;;14.25;14.25;;;;;15.35;59.98;102282.47;6183661;23;47100;-79
2022/04/15 08:06:23;;;;;;;;;21.25;17.50;;;;;15.44;59.85;102286.00;6158840;23;45413;-78
2022/04/15 08:09:02;;;;;;;;;22.75;18.25;;;;;15.55;59.83;102279.81;6185847;23;45347;-81
2022/04/15 08:11:27;;;;;;;;;15.50;14.75;;;;;15.57;59.33;102270.09;6158080;23;45445;-81
2022/04/15 08:13:55;;;;;;;;;18.00;18.00;;;;;15.69;59.25;102272.81;6158008;23;46913;-82
2022/04/15 08:16:20;;;;;;;;;13.75;12.75;;;;;15.75;59.19;102271.91;6158760;23;45958;-81
2022/04/15 08:18:48;;;;;;;;;16.00;14.50;;;;;15.84;58.60;102271.88;6158322;23;45477;-82
2022/04/15 08:21:14;;;;;;;;;11.00;11.00;;;;;15.93;58.51;102269.25;6158928;23;45457;-83
2022/04/15 08:23:39;;;;;;;;;14.75;13.75;;;;;16.01;58.05;102269.19;6158289;23;46956;-83
2022/04/15 08:26:05;;;;;;;;;13.75;11.75;;;;;16.13;58.18;102263.88;6158092;23;45584;-82
2022/04/15 08:28:30;;;;;;;;;18.25;16.25;;;;;16.28;57.86;102270.94;6158447;23;45247;-80
2022/04/15 08:30:56;;;;;;;;;16.50;15.50;;;;;16.38;57.39;102262.00;6158047;23;46104;-80
2022/04/15 08:33:22;;;;;;;;;17.75;14.50;;;;;16.50;57.31;102272.63;6158287;23;46995;-81
2022/04/15 08:35:48;;;;;;;;;13.50;13.50;;;;;16.64;57.04;102271.69;6185875;23;45159;-83
2022/04/15 08:38:14;;;;;;;;;14.00;11.75;;;;;16.75;56.62;102272.50;6158126;23;45303;-81
2022/04/15 08:40:43;;;;;;;;;14.75;10.75;;;;;16.92;56.31;102277.75;6157615;23;45474;-83
2022/04/15 08:43:10;;;;;;;;;12.00;12.00;;;;;17.02;56.17;102271.50;6157759;23;46259;-82
2022/04/15 08:45:39;;;;;;;;;12.50;11.75;;;;;17.13;55.67;102268.78;6158212;23;45186;-81
2022/04/15 08:48:06;;;;;;;;;11.50;11.50;;;;;17.25;55.56;102282.03;6158449;23;45405;-81
2022/04/15 08:50:31;;;;;;;;;13.50;12.25;;;;;17.38;55.45;102274.84;6157243;23;45389;-81
2022/04/15 08:52:58;;;;;;;;;15.00;13.00;;;;;17.52;54.93;102290.69;6184653;23;46152;-82
2022/04/15 08:55:27;;;;;;;;;14.00;11.50;;;;;17.57;54.56;102275.56;6184877;23;45190;-80
2022/04/15 08:57:52;;;;;;;;;12.50;10.75;;;;;17.69;54.73;102275.44;6184563;23;45095;-80
2022/04/15 09:00:19;;;;;;;;;13.75;12.75;;;;;17.83;54.73;102278.94;6184855;23;45381;-82
2022/04/15 09:02:47;;;;;;;;;14.75;13.75;;;;;17.93;54.15;102277.03;6157269;23;46121;-81
2022/04/15 16:14:54;;;;;;;;;13.00;12.25;;;;;25.64;30.78;102123.22;6219834;22;45178;-94
